createdAt,value
2022-08-17T00:00:51.689Z,14.20
2022-08-17T00:01:51.816Z,17.10
2022-08-17T00:02:43.178Z,15.40
2022-08-17T00:03:42.041Z,16.00
2022-08-17T00:04:42.025Z,13.20
2022-08-17T00:05:42.035Z,13.80
2022-08-17T00:06:42.012Z,16.40
2022-08-17T00:07:42.073Z,13.60
2022-08-17T00:08:41.992Z,13.80
2022-08-17T00:09:41.975Z,13.80
2022-08-17T00:10:41.955Z,15.50
2022-08-17T00:11:41.973Z,16.60
2022-08-17T00:12:44.646Z,17.10
2022-08-17T00:13:42.939Z,12.00
2022-08-17T00:14:41.929Z,16.90
2022-08-17T00:15:41.919Z,16.60
2022-08-17T00:16:51.928Z,15.90
2022-08-17T00:17:42.903Z,16.50
2022-08-17T00:19:01.792Z,15.30
2022-08-17T00:19:42.906Z,18.50
2022-08-17T00:20:41.864Z,14.70
2022-08-17T00:22:29.835Z,17.20
2022-08-17T00:22:42.840Z,13.80
2022-08-17T00:23:48.965Z,15.50
2022-08-17T00:24:42.837Z,16.20
2022-08-17T00:25:41.813Z,17.20
2022-08-17T00:26:44.823Z,15.60
2022-08-17T00:27:41.800Z,16.80
2022-08-17T00:28:41.787Z,13.90
2022-08-17T00:29:41.784Z,16.30
2022-08-17T00:30:52.891Z,15.80
2022-08-17T00:31:42.780Z,16.20
2022-08-17T00:33:22.842Z,14.10
2022-08-17T00:33:42.739Z,12.30
2022-08-17T00:34:41.720Z,14.00
2022-08-17T00:35:41.723Z,15.80
2022-08-17T00:36:41.734Z,16.40
2022-08-17T00:37:41.705Z,15.30
2022-08-17T00:38:41.686Z,13.30
2022-08-17T00:39:41.747Z,15.80
2022-08-17T00:40:44.573Z,15.30
2022-08-17T00:41:42.451Z,16.60
2022-08-17T00:42:41.641Z,14.60
2022-08-17T00:43:41.661Z,13.20
2022-08-17T00:44:41.642Z,16.00
2022-08-17T00:45:41.619Z,13.90
2022-08-17T00:46:41.628Z,14.80
2022-08-17T00:47:41.603Z,13.80
2022-08-17T00:48:41.589Z,17.00
2022-08-17T00:49:41.576Z,14.40
2022-08-17T00:50:41.561Z,16.80
2022-08-17T00:51:41.580Z,15.30
2022-08-17T00:52:41.559Z,14.90
2022-08-17T00:53:41.544Z,17.30
2022-08-17T00:54:42.185Z,14.70
2022-08-17T00:55:41.520Z,15.70
2022-08-17T00:56:41.538Z,14.40
2022-08-17T00:57:41.501Z,16.80
2022-08-17T00:58:41.497Z,17.80
2022-08-17T00:59:41.487Z,17.60
2022-08-17T01:00:41.540Z,16.40
2022-08-17T01:01:41.530Z,15.70
2022-08-17T01:02:43.137Z,20.00
2022-08-17T01:03:41.445Z,14.20
2022-08-17T01:04:41.453Z,16.20
2022-08-17T01:05:42.261Z,14.60
2022-08-17T01:06:41.437Z,17.10
2022-08-17T01:07:41.412Z,15.80
2022-08-17T01:08:41.396Z,14.00
2022-08-17T01:09:41.381Z,16.20
2022-08-17T01:10:59.688Z,16.10
2022-08-17T01:11:42.375Z,13.30
2022-08-17T01:12:41.355Z,15.00
2022-08-17T01:13:41.846Z,13.30
2022-08-17T01:14:41.345Z,12.80
2022-08-17T01:15:41.329Z,14.20
2022-08-17T01:16:41.337Z,13.50
2022-08-17T01:17:41.310Z,12.50
2022-08-17T01:18:41.302Z,11.20
2022-08-17T01:19:41.298Z,12.40
2022-08-17T01:20:48.436Z,12.70
2022-08-17T01:21:41.280Z,13.30
2022-08-17T01:22:41.260Z,15.70
2022-08-17T01:23:41.258Z,13.90
2022-08-17T01:24:41.243Z,12.50
2022-08-17T01:25:41.233Z,12.10
2022-08-17T01:26:41.239Z,14.90
2022-08-17T01:27:41.225Z,12.60
2022-08-17T01:28:54.242Z,15.70
2022-08-17T01:29:42.200Z,12.80
2022-08-17T01:30:58.377Z,11.90
2022-08-17T01:31:42.200Z,12.30
2022-08-17T01:32:41.171Z,12.30
2022-08-17T01:33:41.158Z,12.60
2022-08-17T01:34:43.372Z,11.10
2022-08-17T01:35:42.144Z,12.90
2022-08-17T01:36:41.144Z,12.50
2022-08-17T01:37:41.114Z,12.70
2022-08-17T01:38:41.106Z,10.10
2022-08-17T01:39:41.157Z,11.90
2022-08-17T01:40:41.088Z,11.70
2022-08-17T01:41:41.101Z,14.60
2022-08-17T01:42:41.070Z,12.20
2022-08-17T01:43:41.059Z,15.80
2022-08-17T01:44:41.050Z,12.40
2022-08-17T01:45:41.039Z,12.60
2022-08-17T01:46:41.037Z,12.30
2022-08-17T01:47:41.017Z,12.00
2022-08-17T01:48:41.010Z,16.50
2022-08-17T01:49:40.996Z,11.40
2022-08-17T01:50:40.989Z,14.80
2022-08-17T01:51:40.992Z,11.20
2022-08-17T01:52:40.965Z,12.20
2022-08-17T01:53:40.945Z,15.70
2022-08-17T01:54:40.948Z,12.30
2022-08-17T01:55:40.932Z,13.90
2022-08-17T01:56:40.945Z,15.60
2022-08-17T01:57:40.916Z,12.70
2022-08-17T01:58:40.913Z,15.60
2022-08-17T01:59:40.904Z,14.10
2022-08-17T02:00:59.588Z,13.20
2022-08-17T02:01:41.947Z,11.40
2022-08-17T02:02:40.871Z,10.40
2022-08-17T02:03:40.865Z,13.30
2022-08-17T02:04:41.853Z,14.10
2022-08-17T02:05:40.838Z,11.90
2022-08-17T02:06:47.103Z,15.30
2022-08-17T02:07:47.996Z,14.10
2022-08-17T02:09:01.857Z,13.80
2022-08-17T02:09:42.117Z,15.50
2022-08-17T02:10:40.786Z,14.70
2022-08-17T02:11:41.800Z,13.70
2022-08-17T02:12:40.775Z,14.40
2022-08-17T02:13:40.761Z,13.50
2022-08-17T02:14:40.742Z,13.80
2022-08-17T02:15:41.744Z,11.00
2022-08-17T02:16:40.731Z,12.70
2022-08-17T02:17:40.738Z,13.70
2022-08-17T02:18:40.718Z,15.40
2022-08-17T02:19:40.703Z,13.30
2022-08-17T02:20:41.894Z,13.50
2022-08-17T02:21:40.674Z,13.50
2022-08-17T02:22:40.691Z,13.10
2022-08-17T02:23:40.670Z,14.30
2022-08-17T02:24:59.931Z,14.70
2022-08-17T02:25:41.640Z,13.70
2022-08-17T02:26:40.635Z,15.20
2022-08-17T02:27:40.636Z,15.00
2022-08-17T02:28:40.612Z,14.40
2022-08-17T02:29:40.609Z,15.20
2022-08-17T02:30:59.177Z,14.20
2022-08-17T02:31:41.590Z,14.60
2022-08-17T02:32:40.589Z,16.40
2022-08-17T02:33:42.999Z,17.00
2022-08-17T02:34:40.571Z,15.00
2022-08-17T02:35:40.551Z,11.90
2022-08-17T02:36:40.599Z,13.70
2022-08-17T02:37:40.542Z,11.40
2022-08-17T02:38:40.523Z,17.70
2022-08-17T02:39:40.592Z,14.10
2022-08-17T02:40:40.492Z,15.40
2022-08-17T02:41:40.501Z,15.10
2022-08-17T02:42:40.492Z,15.70
2022-08-17T02:43:40.483Z,16.80
2022-08-17T02:44:40.472Z,14.30
2022-08-17T02:45:40.451Z,16.90
2022-08-17T02:46:40.453Z,15.30
2022-08-17T02:47:40.433Z,13.60
2022-08-17T02:48:40.411Z,17.50
2022-08-17T02:49:40.409Z,15.30
2022-08-17T02:50:40.403Z,14.30
2022-08-17T02:51:40.408Z,15.40
2022-08-17T02:52:42.778Z,13.80
2022-08-17T02:53:40.367Z,11.90
2022-08-17T02:54:42.414Z,13.00
2022-08-17T02:55:41.355Z,12.20
2022-08-17T02:56:40.365Z,11.40
2022-08-17T02:57:40.337Z,12.70
2022-08-17T02:58:40.329Z,11.40
2022-08-17T02:59:42.367Z,15.70
2022-08-17T03:00:40.301Z,11.60
2022-08-17T03:01:40.421Z,12.30
2022-08-17T03:02:40.294Z,11.50
2022-08-17T03:03:40.275Z,18.00
2022-08-17T03:04:40.264Z,13.50
2022-08-17T03:05:40.254Z,14.50
2022-08-17T03:06:40.262Z,15.70
2022-08-17T03:07:40.259Z,14.20
2022-08-17T03:08:40.228Z,16.10
2022-08-17T03:09:40.216Z,18.10
2022-08-17T03:10:40.206Z,14.40
2022-08-17T03:11:40.197Z,18.50
2022-08-17T03:12:40.210Z,14.30
2022-08-17T03:13:40.176Z,15.40
2022-08-17T03:14:41.773Z,13.80
2022-08-17T03:15:43.958Z,13.50
2022-08-17T03:16:40.134Z,13.50
2022-08-17T03:17:40.156Z,14.70
2022-08-17T03:18:40.121Z,14.40
2022-08-17T03:19:43.355Z,13.50
2022-08-17T03:20:40.094Z,16.20
2022-08-17T03:21:41.100Z,13.80
2022-08-17T03:22:40.095Z,15.10
2022-08-17T03:23:40.067Z,13.10
2022-08-17T03:24:40.070Z,14.00
2022-08-17T03:25:40.062Z,16.40
2022-08-17T03:26:40.045Z,16.80
2022-08-17T03:27:40.042Z,19.60
2022-08-17T03:28:40.028Z,15.30
2022-08-17T03:29:40.016Z,14.50
2022-08-17T03:30:40.034Z,15.80
2022-08-17T03:31:39.994Z,17.70
2022-08-17T03:32:40.004Z,14.20
2022-08-17T03:33:39.980Z,18.50
2022-08-17T03:34:39.969Z,16.20
2022-08-17T03:35:39.957Z,16.00
2022-08-17T03:36:39.941Z,16.30
2022-08-17T03:37:39.953Z,13.40
2022-08-17T03:38:39.923Z,15.60
2022-08-17T03:39:39.970Z,14.50
2022-08-17T03:40:59.066Z,16.50
2022-08-17T03:41:40.902Z,16.60
2022-08-17T03:42:39.907Z,13.70
2022-08-17T03:43:39.881Z,15.00
2022-08-17T03:44:39.866Z,15.60
2022-08-17T03:45:39.865Z,13.30
2022-08-17T03:46:39.854Z,16.70
2022-08-17T03:47:39.862Z,14.30
2022-08-17T03:48:39.826Z,13.30
2022-08-17T03:49:39.824Z,12.50
2022-08-17T03:50:39.814Z,15.50
2022-08-17T03:51:39.790Z,14.20
2022-08-17T03:52:40.811Z,11.50
2022-08-17T03:53:39.790Z,13.00
2022-08-17T03:54:39.766Z,15.10
2022-08-17T03:55:39.768Z,15.30
2022-08-17T03:56:39.754Z,12.80
2022-08-17T03:57:39.761Z,14.70
2022-08-17T03:58:52.076Z,12.90
2022-08-17T03:59:39.727Z,14.20
2022-08-17T04:00:39.899Z,12.60
2022-08-17T04:01:39.726Z,12.60
2022-08-17T04:02:39.714Z,14.60
2022-08-17T04:03:39.687Z,14.50
2022-08-17T04:04:39.676Z,17.50
2022-08-17T04:05:39.668Z,13.20
2022-08-17T04:06:39.646Z,15.60
2022-08-17T04:07:39.662Z,17.20
2022-08-17T04:08:39.636Z,13.10
2022-08-17T04:09:39.628Z,14.30
2022-08-17T04:10:41.941Z,13.70
2022-08-17T04:11:40.601Z,16.10
2022-08-17T04:12:39.618Z,12.80
2022-08-17T04:13:39.590Z,14.60
2022-08-17T04:14:53.169Z,12.70
2022-08-17T04:15:40.573Z,14.50
2022-08-17T04:16:39.556Z,15.70
2022-08-17T04:17:39.565Z,14.00
2022-08-17T04:18:39.531Z,16.40
2022-08-17T04:19:39.522Z,15.30
2022-08-17T04:20:39.525Z,15.60
2022-08-17T04:21:39.508Z,17.60
2022-08-17T04:22:39.515Z,15.60
2022-08-17T04:23:39.485Z,14.60
2022-08-17T04:24:39.482Z,14.40
2022-08-17T04:25:39.469Z,12.10
2022-08-17T04:26:52.810Z,17.80
2022-08-17T04:27:40.466Z,14.10
2022-08-17T04:28:39.439Z,15.70
2022-08-17T04:29:54.938Z,14.00
2022-08-17T04:30:40.421Z,12.20
2022-08-17T04:31:39.404Z,12.40
2022-08-17T04:33:03.523Z,13.90
2022-08-17T04:33:40.388Z,13.90
2022-08-17T04:34:39.374Z,13.00
2022-08-17T04:35:39.364Z,12.70
2022-08-17T04:36:39.357Z,13.10
2022-08-17T04:37:39.364Z,11.70
2022-08-17T04:38:39.341Z,14.60
2022-08-17T04:39:39.396Z,12.10
2022-08-17T04:40:39.319Z,15.10
2022-08-17T04:41:39.305Z,12.70
2022-08-17T04:42:39.305Z,16.10
2022-08-17T04:43:39.298Z,14.80
2022-08-17T04:44:39.289Z,18.00
2022-08-17T04:45:39.267Z,14.90
2022-08-17T04:46:39.259Z,15.00
2022-08-17T04:47:39.265Z,14.20
2022-08-17T04:48:39.235Z,11.90
2022-08-17T04:49:39.217Z,12.90
2022-08-17T04:50:39.213Z,15.20
2022-08-17T04:51:39.207Z,13.20
2022-08-17T04:52:53.877Z,13.30
2022-08-17T04:53:40.187Z,15.30
2022-08-17T04:54:39.173Z,15.50
2022-08-17T04:55:39.165Z,15.20
2022-08-17T04:56:39.158Z,17.60
2022-08-17T04:57:44.566Z,18.90
2022-08-17T04:58:40.126Z,17.40
2022-08-17T04:59:39.129Z,18.50
2022-08-17T05:00:39.121Z,18.90
2022-08-17T05:01:39.139Z,14.40
2022-08-17T05:02:39.097Z,15.60
2022-08-17T05:03:40.087Z,19.80
2022-08-17T05:04:39.081Z,14.50
2022-08-17T05:05:39.079Z,19.00
2022-08-17T05:06:39.054Z,13.60
2022-08-17T05:07:39.065Z,14.30
2022-08-17T05:08:39.036Z,17.70
2022-08-17T05:09:39.025Z,16.50
2022-08-17T05:10:45.567Z,11.60
2022-08-17T05:11:40.014Z,13.00
2022-08-17T05:12:40.015Z,15.30
2022-08-17T05:13:38.983Z,19.10
2022-08-17T05:14:38.973Z,13.40
2022-08-17T05:15:38.977Z,15.60
2022-08-17T05:16:39.956Z,12.40
2022-08-17T05:17:38.976Z,14.20
2022-08-17T05:18:38.997Z,17.30
2022-08-17T05:19:38.932Z,13.90
2022-08-17T05:20:38.921Z,16.40
2022-08-17T05:21:38.902Z,13.60
2022-08-17T05:22:38.902Z,14.80
2022-08-17T05:23:42.418Z,14.20
2022-08-17T05:24:53.510Z,10.20
2022-08-17T05:25:39.873Z,15.00
2022-08-17T05:26:38.862Z,12.80
2022-08-17T05:27:38.869Z,11.00
2022-08-17T05:28:38.838Z,13.40
2022-08-17T05:29:38.832Z,12.60
2022-08-17T05:30:38.808Z,10.80
2022-08-17T05:31:38.805Z,13.80
2022-08-17T05:32:40.355Z,12.70
2022-08-17T05:33:44.308Z,11.20
2022-08-17T05:34:39.774Z,12.00
2022-08-17T05:35:38.771Z,12.90
2022-08-17T05:36:42.887Z,12.90
2022-08-17T05:37:39.765Z,11.60
2022-08-17T05:38:38.734Z,14.50
2022-08-17T05:39:38.809Z,13.20
2022-08-17T05:40:38.725Z,12.10
2022-08-17T05:41:38.704Z,14.60
2022-08-17T05:42:38.702Z,12.70
2022-08-17T05:43:38.689Z,11.00
2022-08-17T05:44:38.677Z,14.10
2022-08-17T05:45:55.575Z,12.50
2022-08-17T05:46:39.655Z,12.60
2022-08-17T05:47:38.669Z,12.20
2022-08-17T05:48:40.149Z,10.50
2022-08-17T05:49:38.624Z,11.40
2022-08-17T05:50:38.607Z,15.20
2022-08-17T05:51:38.612Z,15.40
2022-08-17T05:52:38.614Z,12.20
2022-08-17T05:53:38.620Z,10.40
2022-08-17T05:54:38.584Z,12.70
2022-08-17T05:55:38.606Z,14.60
2022-08-17T05:56:38.559Z,14.00
2022-08-17T05:57:39.900Z,13.50
2022-08-17T05:58:38.538Z,14.10
2022-08-17T05:59:38.533Z,12.00
2022-08-17T06:00:41.811Z,12.90
2022-08-17T06:01:38.566Z,13.70
2022-08-17T06:02:38.510Z,13.10
2022-08-17T06:03:38.500Z,12.60
2022-08-17T06:04:38.493Z,12.30
2022-08-17T06:05:38.475Z,10.50
2022-08-17T06:06:38.457Z,12.60
2022-08-17T06:07:38.476Z,12.00
2022-08-17T06:08:38.451Z,12.10
2022-08-17T06:09:38.448Z,10.80
2022-08-17T06:10:38.424Z,12.70
2022-08-17T06:11:38.423Z,12.80
2022-08-17T06:12:38.431Z,12.30
2022-08-17T06:13:38.402Z,15.90
2022-08-17T06:14:38.386Z,19.40
2022-08-17T06:15:38.383Z,14.80
2022-08-17T06:16:38.368Z,14.20
2022-08-17T06:17:38.375Z,13.50
2022-08-17T06:18:38.344Z,14.30
2022-08-17T06:19:38.349Z,15.10
2022-08-17T06:20:38.338Z,12.80
2022-08-17T06:21:38.324Z,14.10
2022-08-17T06:22:38.329Z,15.10
2022-08-17T06:23:38.308Z,14.70
2022-08-17T06:24:38.297Z,11.70
2022-08-17T06:25:38.289Z,13.40
2022-08-17T06:26:42.769Z,13.80
2022-08-17T06:27:39.304Z,17.00
2022-08-17T06:28:38.267Z,15.20
2022-08-17T06:29:38.245Z,15.10
2022-08-17T06:30:57.603Z,15.60
2022-08-17T06:31:39.234Z,20.20
2022-08-17T06:32:38.231Z,16.10
2022-08-17T06:33:38.204Z,19.00
2022-08-17T06:34:38.196Z,17.60
2022-08-17T06:35:38.186Z,16.30
2022-08-17T06:36:38.164Z,14.70
2022-08-17T06:37:38.188Z,13.90
2022-08-17T06:38:38.858Z,14.10
2022-08-17T06:39:39.223Z,15.80
2022-08-17T06:40:38.143Z,14.70
2022-08-17T06:41:38.221Z,18.80
2022-08-17T06:43:02.513Z,18.30
2022-08-17T06:43:39.116Z,16.20
2022-08-17T06:44:43.479Z,16.40
2022-08-17T06:45:39.097Z,13.50
2022-08-17T06:46:38.085Z,15.30
2022-08-17T06:47:38.089Z,19.90
2022-08-17T06:48:38.071Z,16.20
2022-08-17T06:49:38.046Z,14.00
2022-08-17T06:50:38.042Z,16.10
2022-08-17T06:51:39.520Z,14.40
2022-08-17T06:52:46.090Z,15.20
2022-08-17T06:53:38.015Z,16.20
2022-08-17T06:54:38.003Z,17.00
2022-08-17T06:55:38.426Z,14.50
2022-08-17T06:56:53.408Z,15.20
2022-08-17T06:57:38.998Z,16.40
2022-08-17T06:58:38.877Z,16.40
2022-08-17T06:59:55.843Z,20.00
2022-08-17T07:00:39.008Z,17.30
2022-08-17T07:01:38.033Z,19.50
2022-08-17T07:02:51.891Z,16.00
2022-08-17T07:03:38.922Z,21.90
2022-08-17T07:04:37.919Z,17.40
2022-08-17T07:05:38.858Z,20.00
2022-08-17T07:06:38.149Z,21.30
2022-08-17T07:07:37.907Z,19.00
2022-08-17T07:08:37.870Z,22.00
2022-08-17T07:09:37.866Z,20.70
2022-08-17T07:10:37.860Z,23.30
2022-08-17T07:11:37.846Z,20.20
2022-08-17T07:12:37.861Z,19.30
2022-08-17T07:13:37.826Z,16.60
2022-08-17T07:14:37.822Z,23.70
2022-08-17T07:15:37.807Z,21.60
2022-08-17T07:16:37.789Z,19.10
2022-08-17T07:17:47.356Z,22.70
2022-08-17T07:18:38.773Z,20.90
2022-08-17T07:19:37.782Z,19.60
2022-08-17T07:20:37.759Z,20.30
2022-08-17T07:21:37.759Z,20.30
2022-08-17T07:22:50.367Z,20.70
2022-08-17T07:23:38.732Z,20.10
2022-08-17T07:24:37.719Z,21.10
2022-08-17T07:25:37.712Z,22.50
2022-08-17T07:26:37.699Z,22.50
2022-08-17T07:27:37.717Z,24.90
2022-08-17T07:28:37.669Z,27.50
2022-08-17T07:29:37.677Z,26.20
2022-08-17T07:30:46.881Z,29.00
2022-08-17T07:31:38.658Z,23.80
2022-08-17T07:32:37.660Z,29.00
2022-08-17T07:33:37.716Z,37.20
2022-08-17T07:34:37.620Z,30.50
2022-08-17T07:35:41.441Z,25.40
2022-08-17T07:36:37.605Z,24.70
2022-08-17T07:37:37.614Z,29.70
2022-08-17T07:38:37.585Z,32.50
2022-08-17T07:39:37.652Z,31.70
2022-08-17T07:40:38.589Z,26.20
2022-08-17T07:41:57.632Z,33.00
2022-08-17T07:42:43.085Z,22.50
2022-08-17T07:43:38.539Z,27.60
2022-08-17T07:44:37.528Z,28.40
2022-08-17T07:45:37.517Z,21.20
2022-08-17T07:46:37.503Z,22.00
2022-08-17T07:47:37.513Z,23.00
2022-08-17T07:48:37.499Z,21.50
2022-08-17T07:49:37.486Z,24.70
2022-08-17T07:50:37.467Z,24.80
2022-08-17T07:51:37.471Z,24.40
2022-08-17T07:52:50.501Z,28.30
2022-08-17T07:53:38.435Z,21.60
2022-08-17T07:54:37.423Z,21.20
2022-08-17T07:55:37.418Z,22.40
2022-08-17T07:56:37.402Z,21.50
2022-08-17T07:57:37.414Z,25.70
2022-08-17T07:58:37.388Z,17.30
2022-08-17T07:59:37.384Z,19.80
2022-08-17T08:00:37.364Z,17.60
2022-08-17T08:01:41.738Z,22.00
2022-08-17T08:02:37.367Z,20.30
2022-08-17T08:03:37.344Z,17.40
2022-08-17T08:05:50.608Z,21.70
2022-08-17T08:06:38.318Z,17.70
2022-08-17T08:07:37.314Z,20.00
2022-08-17T08:08:37.291Z,19.10
2022-08-17T08:09:37.277Z,17.00
2022-08-17T08:10:37.273Z,21.00
2022-08-17T08:11:40.196Z,17.10
2022-08-17T08:12:37.268Z,13.60
2022-08-17T08:13:37.241Z,19.70
2022-08-17T08:14:37.231Z,14.40
2022-08-17T08:15:37.228Z,13.80
2022-08-17T08:16:37.207Z,14.90
2022-08-17T08:17:37.218Z,12.60
2022-08-17T08:18:53.421Z,15.80
2022-08-17T08:19:38.187Z,16.90
2022-08-17T08:20:51.284Z,12.90
2022-08-17T08:21:38.168Z,14.30
2022-08-17T08:22:37.165Z,16.40
2022-08-17T08:23:37.142Z,16.60
2022-08-17T08:24:37.126Z,16.20
2022-08-17T08:25:37.123Z,11.80
2022-08-17T08:26:37.104Z,14.70
2022-08-17T08:27:38.119Z,16.50
2022-08-17T08:28:37.081Z,14.90
2022-08-17T08:29:37.118Z,11.40
2022-08-17T08:30:37.076Z,12.60
2022-08-17T08:31:42.057Z,20.60
2022-08-17T08:32:38.080Z,14.60
2022-08-17T08:33:37.050Z,13.10
2022-08-17T08:34:58.987Z,14.50
2022-08-17T08:35:38.024Z,16.30
2022-08-17T08:37:02.041Z,16.70
2022-08-17T08:37:42.131Z,17.20
2022-08-17T08:38:39.000Z,17.40
2022-08-17T08:39:37.050Z,15.60
2022-08-17T08:40:36.987Z,16.10
2022-08-17T08:41:36.974Z,11.80
2022-08-17T08:42:36.988Z,13.10
2022-08-17T08:43:36.953Z,14.30
2022-08-17T08:45:00.063Z,14.50
2022-08-17T08:45:37.937Z,16.30
2022-08-17T08:46:36.932Z,12.80
2022-08-17T08:47:36.937Z,13.50
2022-08-17T08:48:57.957Z,20.50
2022-08-17T08:50:02.644Z,12.40
2022-08-17T08:50:38.904Z,13.60
2022-08-17T08:51:36.881Z,14.00
2022-08-17T08:52:36.869Z,13.70
2022-08-17T08:53:36.862Z,18.20
2022-08-17T08:54:36.851Z,13.40
2022-08-17T08:55:36.834Z,14.80
2022-08-17T08:56:37.823Z,11.00
2022-08-17T08:57:36.839Z,15.10
2022-08-17T08:58:42.295Z,11.70
2022-08-17T08:59:41.814Z,14.80
2022-08-17T09:00:36.788Z,11.50
2022-08-17T09:01:36.844Z,13.50
2022-08-17T09:02:36.788Z,18.70
2022-08-17T09:03:52.156Z,13.60
2022-08-17T09:05:10.287Z,14.80
2022-08-17T09:05:37.746Z,11.70
2022-08-17T09:06:38.903Z,15.40
2022-08-17T09:07:36.749Z,15.50
2022-08-17T09:08:36.706Z,12.10
2022-08-17T09:09:36.703Z,14.20
2022-08-17T09:10:36.696Z,16.10
2022-08-17T09:11:36.691Z,13.00
2022-08-17T09:12:37.701Z,10.40
2022-08-17T09:13:36.681Z,9.40
2022-08-17T09:14:46.743Z,15.10
2022-08-17T09:15:38.646Z,9.70
2022-08-17T09:16:36.629Z,9.70
2022-08-17T09:17:36.650Z,13.50
2022-08-17T09:19:00.247Z,14.00
2022-08-17T09:19:37.614Z,12.20
2022-08-17T09:20:36.594Z,12.10
2022-08-17T09:21:36.604Z,8.90
2022-08-17T09:22:36.594Z,13.20
2022-08-17T09:23:36.601Z,12.60
2022-08-17T09:24:36.560Z,15.70
2022-08-17T09:25:36.563Z,17.90
2022-08-17T09:26:36.551Z,14.80
2022-08-17T09:27:36.533Z,11.20
2022-08-17T09:28:36.541Z,14.10
2022-08-17T09:29:36.518Z,15.30
2022-08-17T09:30:36.510Z,11.20
2022-08-17T09:31:49.032Z,8.90
2022-08-17T09:32:37.483Z,9.00
2022-08-17T09:33:36.496Z,10.60
2022-08-17T09:34:36.472Z,10.30
2022-08-17T09:35:36.908Z,12.30
2022-08-17T09:36:36.452Z,7.20
2022-08-17T09:37:36.449Z,10.50
2022-08-17T09:38:36.450Z,9.90
2022-08-17T09:39:36.479Z,9.20
2022-08-17T09:40:36.435Z,11.00
2022-08-17T09:41:36.413Z,8.60
2022-08-17T09:42:36.400Z,11.40
2022-08-17T09:43:36.404Z,9.60
2022-08-17T09:44:36.371Z,8.20
2022-08-17T09:45:36.389Z,6.90
2022-08-17T09:46:38.748Z,9.00
2022-08-17T09:47:36.351Z,7.80
2022-08-17T09:48:36.356Z,9.80
2022-08-17T09:49:36.341Z,14.30
2022-08-17T09:51:05.341Z,32.10
2022-08-17T09:51:37.319Z,16.70
2022-08-17T09:52:36.303Z,8.40
2022-08-17T09:53:37.331Z,9.50
2022-08-17T09:54:40.349Z,7.50
2022-08-17T09:55:37.280Z,7.80
2022-08-17T09:56:36.256Z,9.80
2022-08-17T09:57:36.253Z,10.30
2022-08-17T09:58:36.259Z,8.50
2022-08-17T10:00:02.144Z,9.70
2022-08-17T10:00:36.239Z,9.90
2022-08-17T10:01:36.246Z,7.60
2022-08-17T10:02:36.211Z,7.70
2022-08-17T10:03:36.223Z,8.40
2022-08-17T10:04:36.197Z,6.50
2022-08-17T10:05:36.194Z,7.00
2022-08-17T10:06:36.177Z,6.90
2022-08-17T10:07:36.163Z,6.50
2022-08-17T10:08:36.175Z,4.50
2022-08-17T10:09:36.148Z,7.40
2022-08-17T10:10:36.142Z,7.30
2022-08-17T10:11:36.125Z,5.50
2022-08-17T10:12:37.125Z,5.30
2022-08-17T10:13:36.128Z,6.50
2022-08-17T10:14:44.180Z,6.50
2022-08-17T10:15:36.096Z,8.30
2022-08-17T10:16:36.094Z,5.50
2022-08-17T10:17:36.083Z,6.70
2022-08-17T10:18:36.081Z,7.40
2022-08-17T10:19:36.052Z,5.00
2022-08-17T10:20:36.046Z,5.30
2022-08-17T10:21:36.039Z,6.00
2022-08-17T10:22:38.087Z,4.60
2022-08-17T10:23:36.037Z,5.50
2022-08-17T10:24:37.019Z,5.00
2022-08-17T10:25:53.663Z,4.00
2022-08-17T10:26:54.164Z,5.50
2022-08-17T10:27:36.983Z,5.50
2022-08-17T10:28:36.038Z,5.50
2022-08-17T10:29:49.190Z,5.70
2022-08-17T10:30:36.948Z,5.90
2022-08-17T10:31:36.420Z,6.10
2022-08-17T10:32:35.941Z,5.20
2022-08-17T10:33:35.987Z,6.30
2022-08-17T10:34:38.785Z,5.50
2022-08-17T10:35:35.921Z,8.00
2022-08-17T10:36:35.910Z,7.40
2022-08-17T10:37:35.906Z,7.40
2022-08-17T10:38:35.908Z,6.30
2022-08-17T10:39:35.946Z,7.10
2022-08-17T10:40:36.876Z,6.10
2022-08-17T10:41:40.195Z,6.30
2022-08-17T10:42:36.853Z,8.80
2022-08-17T10:43:35.859Z,8.70
2022-08-17T10:44:38.381Z,6.10
2022-08-17T10:45:35.825Z,6.50
2022-08-17T10:46:35.815Z,6.20
2022-08-17T10:47:54.701Z,3.80
2022-08-17T10:48:37.819Z,5.40
2022-08-17T10:49:35.794Z,5.80
2022-08-17T10:50:36.779Z,7.60
2022-08-17T10:51:35.781Z,6.10
2022-08-17T10:52:35.781Z,4.50
2022-08-17T10:53:35.790Z,8.50
2022-08-17T10:54:35.763Z,8.10
2022-08-17T10:55:35.763Z,5.50
2022-08-17T10:56:35.750Z,5.00
2022-08-17T10:57:35.728Z,6.90
2022-08-17T10:58:35.741Z,6.50
2022-08-17T10:59:35.719Z,6.40
2022-08-17T11:00:35.774Z,8.00
2022-08-17T11:01:35.799Z,5.70
2022-08-17T11:02:35.686Z,5.50
2022-08-17T11:03:35.691Z,4.80
2022-08-17T11:04:35.672Z,4.80
2022-08-17T11:05:38.947Z,4.90
2022-08-17T11:06:35.648Z,5.40
2022-08-17T11:07:35.642Z,5.70
2022-08-17T11:08:35.653Z,5.70
2022-08-17T11:09:35.622Z,8.40
2022-08-17T11:10:35.606Z,6.90
2022-08-17T11:11:35.696Z,6.60
2022-08-17T11:12:35.592Z,8.70
2022-08-17T11:13:35.593Z,7.20
2022-08-17T11:14:35.570Z,7.40
2022-08-17T11:15:35.563Z,12.70
2022-08-17T11:16:35.558Z,7.20
2022-08-17T11:17:35.538Z,4.50
2022-08-17T11:18:35.554Z,9.70
2022-08-17T11:19:35.528Z,5.40
2022-08-17T11:20:35.520Z,5.50
2022-08-17T11:21:35.512Z,8.50
2022-08-17T11:22:35.509Z,9.40
2022-08-17T11:23:35.507Z,8.90
2022-08-17T11:24:35.502Z,5.20
2022-08-17T11:25:35.469Z,7.00
2022-08-17T11:26:35.464Z,4.50
2022-08-17T11:27:35.453Z,11.00
2022-08-17T11:28:35.471Z,7.20
2022-08-17T11:29:35.428Z,7.10
2022-08-17T11:30:35.431Z,9.30
2022-08-17T11:31:38.456Z,5.30
2022-08-17T11:32:35.416Z,6.90
2022-08-17T11:33:36.912Z,10.10
2022-08-17T11:34:35.405Z,8.30
2022-08-17T11:35:35.413Z,11.30
2022-08-17T11:36:35.385Z,6.20
2022-08-17T11:37:35.378Z,8.30
2022-08-17T11:38:35.372Z,11.50
2022-08-17T11:39:35.444Z,11.00
2022-08-17T11:40:35.345Z,7.20
2022-08-17T11:41:35.330Z,8.00
2022-08-17T11:42:35.328Z,7.60
2022-08-17T11:43:39.532Z,7.50
2022-08-17T11:44:36.308Z,8.70
2022-08-17T11:45:35.293Z,9.50
2022-08-17T11:46:35.297Z,7.60
2022-08-17T11:47:35.286Z,7.30
2022-08-17T11:48:35.779Z,10.10
2022-08-17T11:49:35.263Z,7.20
2022-08-17T11:50:35.252Z,5.90
2022-08-17T11:51:35.250Z,4.90
2022-08-17T11:52:35.236Z,6.90
2022-08-17T11:53:35.244Z,9.40
2022-08-17T11:54:35.223Z,7.60
2022-08-17T11:55:39.343Z,10.50
2022-08-17T11:56:37.200Z,7.40
2022-08-17T11:57:35.200Z,9.40
2022-08-17T11:58:35.192Z,10.60
2022-08-17T11:59:35.165Z,6.00
2022-08-17T12:00:35.163Z,10.70
2022-08-17T12:01:35.140Z,7.40
2022-08-17T12:02:35.212Z,11.80
2022-08-17T12:03:35.155Z,8.70
2022-08-17T12:04:35.170Z,11.50
2022-08-17T12:05:35.105Z,7.70
2022-08-17T12:06:35.101Z,8.40
2022-08-17T12:07:35.100Z,7.10
2022-08-17T12:08:35.101Z,8.90
2022-08-17T12:09:35.073Z,6.10
2022-08-17T12:10:35.077Z,7.90
2022-08-17T12:12:11.076Z,9.70
2022-08-17T12:12:36.081Z,7.80
2022-08-17T12:13:39.799Z,11.50
2022-08-17T12:15:08.062Z,10.30
2022-08-17T12:15:37.021Z,8.60
2022-08-17T12:16:35.046Z,10.60
2022-08-17T12:17:52.228Z,9.40
2022-08-17T12:18:36.050Z,6.60
2022-08-17T12:19:35.004Z,5.50
2022-08-17T12:20:34.976Z,7.20
2022-08-17T12:21:34.973Z,5.60
2022-08-17T12:22:34.949Z,9.30
2022-08-17T12:23:34.993Z,8.30
2022-08-17T12:24:34.930Z,6.50
2022-08-17T12:25:34.916Z,8.60
2022-08-17T12:26:34.912Z,8.20
2022-08-17T12:28:04.178Z,7.70
2022-08-17T12:28:35.912Z,7.30
2022-08-17T12:29:35.220Z,13.00
2022-08-17T12:30:34.871Z,8.70
2022-08-17T12:31:34.870Z,7.50
2022-08-17T12:32:34.864Z,6.00
2022-08-17T12:33:34.850Z,8.00
2022-08-17T12:34:34.834Z,6.30
2022-08-17T12:35:34.836Z,7.60
2022-08-17T12:36:34.819Z,11.00
2022-08-17T12:37:34.811Z,8.60
2022-08-17T12:38:35.029Z,11.30
2022-08-17T12:39:34.822Z,7.20
2022-08-17T12:40:34.785Z,8.80
2022-08-17T12:41:34.762Z,10.60
2022-08-17T12:42:34.758Z,6.70
2022-08-17T12:43:34.763Z,9.90
2022-08-17T12:44:34.747Z,7.10
2022-08-17T12:45:34.731Z,11.50
2022-08-17T12:46:34.729Z,9.20
2022-08-17T12:47:34.719Z,8.90
2022-08-17T12:48:34.721Z,9.40
2022-08-17T12:49:34.709Z,6.50
2022-08-17T12:50:34.672Z,6.70
2022-08-17T12:51:35.671Z,11.30
2022-08-17T12:52:34.663Z,9.10
2022-08-17T12:53:34.671Z,10.20
2022-08-17T12:54:34.638Z,9.20
2022-08-17T12:55:34.636Z,9.00
2022-08-17T12:56:34.624Z,7.60
2022-08-17T12:57:34.613Z,7.50
2022-08-17T12:58:34.615Z,9.10
2022-08-17T12:59:34.593Z,6.90